Time;durP1;ratioP1;P1;durP2;ratioP2;P2;SDS_P1;SDS_P2;PMS_P1;PMS_P2;Temp;Humidity;BMP_temperature;BMP_pressure;BME280_temperature;BME280_humidity;BME280_pressure;Samples;Min_cycle;Max_cycle;Signal;HPM_P1;HPM_P2
2021/09/29 00:00:54;;;;;;;2.22;0.60;;;;;;;;;;4976082;28;20066;-85
2021/09/29 00:03:20;;;;;;;3.35;1.30;;;;;;;;;;5003606;28;20070;-85
2021/09/29 00:05:46;;;;;;;1.80;1.20;;;;;;;;;;4983431;28;20023;-86
2021/09/29 00:08:12;;;;;;;0.90;0.82;;;;;;;;;;4988357;28;20538;-85
2021/09/29 00:10:39;;;;;;;0.98;0.80;;;;;;;;;;4991178;28;20034;-86
2021/09/29 00:13:06;;;;;;;1.13;0.50;;;;;;;;;;4989487;28;20061;-87
2021/09/29 00:15:32;;;;;;;0.55;0.50;;;;;;;;;;4988487;28;20122;-85
2021/09/29 00:17:58;;;;;;;0.70;0.70;;;;;;;;;;4974282;28;20042;-86
2021/09/29 00:20:24;;;;;;;0.50;0.50;;;;;;;;;;4991066;28;20030;-85
2021/09/29 00:22:50;;;;;;;1.38;0.73;;;;;;;;;;4994510;28;20022;-86
2021/09/29 00:25:16;;;;;;;1.23;0.80;;;;;;;;;;4992977;28;20134;-86
2021/09/29 00:27:43;;;;;;;2.05;0.75;;;16.90;66.50;;;;;;5005546;28;20073;-86
2021/09/29 00:30:10;;;;;;;2.22;1.30;;;;;;;;;;4990695;28;20083;-86
2021/09/29 00:32:40;;;;;;;2.40;1.55;;;16.80;67.00;;;;;;4976244;28;20041;-86
2021/09/29 00:35:07;;;;;;;3.53;1.38;;;;;;;;;;4982114;28;20038;-85
2021/09/29 00:37:33;;;;;;;1.00;0.90;;;;;;;;;;4991340;28;20042;-85
2021/09/29 00:39:59;;;;;;;1.35;1.00;;;;;;;;;;4990744;28;20173;-86
2021/09/29 00:42:25;;;;;;;1.95;0.93;;;;;;;;;;4985088;28;20026;-85
2021/09/29 00:44:51;;;;;;;5.15;0.98;;;;;;;;;;5005695;28;20435;-86
2021/09/29 00:47:18;;;;;;;1.60;0.82;;;16.60;66.90;;;;;;4983769;28;20465;-86
2021/09/29 00:49:44;;;;;;;0.60;0.60;;;;;;;;;;4997468;28;20030;-84
2021/09/29 00:52:10;;;;;;;1.17;0.80;;;;;;;;;;4991240;28;20447;-85
2021/09/29 00:54:36;;;;;;;1.48;0.85;;;;;;;;;;4989840;28;20057;-85
2021/09/29 00:57:02;;;;;;;5.32;1.38;;;;;;;;;;4986998;28;20387;-86
2021/09/29 00:59:28;;;;;;;3.85;1.65;;;;;;;;;;4989449;28;20040;-85
2021/09/29 01:01:55;;;;;;;4.50;1.10;;;;;;;;;;5005878;28;20026;-85
2021/09/29 01:04:22;;;;;;;3.90;1.55;;;;;;;;;;4986065;28;20042;-86
2021/09/29 01:06:57;;;;;;;0.80;0.70;;;;;;;;;;5003990;28;20026;-85
2021/09/29 01:09:39;;;;;;;1.00;0.70;;;;;;;;;;4989596;28;20031;-85
2021/09/29 01:12:26;;;;;;;3.95;1.05;;;16.60;66.90;;;;;;4976593;28;20093;-85
2021/09/29 01:15:05;;;;;;;;;;;16.60;66.90;;;;;;4996952;28;20031;-86
2021/09/29 01:17:31;;;;;;;0.38;0.38;;;;;;;;;;5002058;28;20022;-85
2021/09/29 01:20:09;;;;;;;0.57;0.57;;;;;;;;;;4990926;28;20030;-86
2021/09/29 01:22:41;;;;;;;1.30;0.93;;;16.60;65.90;;;;;;4985924;28;20030;-85
2021/09/29 01:25:09;;;;;;;0.88;0.68;;;;;;;;;;5005654;28;20057;-86
2021/09/29 01:27:35;;;;;;;3.53;0.80;;;;;;;;;;4989453;28;20180;-85
2021/09/29 01:30:02;;;;;;;0.60;0.50;;;;;;;;;;4992377;28;20101;-85
2021/09/29 01:32:28;;;;;;;1.30;0.85;;;;;;;;;;5003501;28;20034;-85
2021/09/29 01:34:54;;;;;;;0.80;0.80;;;;;;;;;;4990884;28;20129;-85
2021/09/29 01:37:20;;;;;;;1.02;0.85;;;;;;;;;;5002012;28;20027;-85
2021/09/29 01:39:47;;;;;;;1.20;0.88;;;;;;;;;;4990596;28;20034;-85
2021/09/29 01:42:12;;;;;;;3.08;1.40;;;;;;;;;;4971984;28;20027;-86
2021/09/29 01:44:39;;;;;;;7.25;1.05;;;;;;;;;;4979256;28;20041;-86
2021/09/29 01:47:05;;;;;;;0.77;0.50;;;;;;;;;;4998840;28;20063;-84
2021/09/29 01:49:36;;;;;;;1.90;0.70;;;16.50;65.90;;;;;;4990376;28;20034;-86
2021/09/29 01:52:04;;;;;;;1.48;0.70;;;;;;;;;;4988242;28;20069;-86
2021/09/29 01:54:31;;;;;;;1.30;0.80;;;;;;;;;;4986997;28;20121;-86
2021/09/29 01:56:57;;;;;;;2.90;1.00;;;;;;;;;;4980073;28;20023;-85
2021/09/29 01:59:24;;;;;;;0.60;0.50;;;16.50;66.40;;;;;;4991753;28;20029;-86
2021/09/29 02:01:50;;;;;;;1.15;0.85;;;;;;;;;;5004577;28;20034;-85
2021/09/29 02:04:18;;;;;;;0.43;0.43;;;;;;;;;;5004599;28;20031;-85
2021/09/29 02:06:52;;;;;;;2.83;0.60;;;16.30;66.10;;;;;;4977285;28;20114;-84
2021/09/29 02:09:18;;;;;;;0.60;0.60;;;;;;;;;;4993352;28;20077;-86
2021/09/29 02:11:44;;;;;;;5.65;1.10;;;;;;;;;;4992616;28;20554;-86
2021/09/29 02:14:11;;;;;;;1.20;1.10;;;;;;;;;;4992346;28;20085;-86
2021/09/29 02:16:37;;;;;;;0.70;0.70;;;;;;;;;;5005326;28;20546;-85
2021/09/29 02:19:03;;;;;;;2.08;1.05;;;;;;;;;;4983509;28;20057;-86
2021/09/29 02:21:29;;;;;;;1.02;0.80;;;;;;;;;;4993617;28;20146;-88
2021/09/29 02:23:55;;;;;;;3.90;0.90;;;;;;;;;;4993723;28;20019;-85
2021/09/29 02:26:21;;;;;;;2.10;1.08;;;;;;;;;;4985224;28;20059;-85
2021/09/29 02:28:47;;;;;;;1.67;1.27;;;;;;;;;;4997599;28;20046;-86
2021/09/29 02:31:13;;;;;;;1.50;0.73;;;;;;;;;;4997397;28;20039;-85
2021/09/29 02:33:39;;;;;;;0.93;0.77;;;;;;;;;;5001441;28;20127;-86
2021/09/29 02:36:05;;;;;;;1.35;1.20;;;;;;;;;;5004763;28;20030;-85
2021/09/29 02:38:31;;;;;;;3.28;0.80;;;;;;;;;;5007891;28;20034;-86
2021/09/29 02:40:57;;;;;;;5.78;1.10;;;;;;;;;;4998310;28;20035;-86
2021/09/29 02:43:23;;;;;;;1.40;0.93;;;;;;;;;;4982104;28;20038;-86
2021/09/29 02:45:49;;;;;;;1.33;0.80;;;;;;;;;;4992617;28;20543;-85
2021/09/29 02:48:15;;;;;;;0.88;0.80;;;;;;;;;;4992732;28;20039;-87
2021/09/29 02:50:41;;;;;;;1.50;0.70;;;;;;;;;;4981623;28;20507;-86
2021/09/29 02:53:07;;;;;;;1.15;0.85;;;;;;;;;;4998529;28;20023;-87
2021/09/29 02:55:33;;;;;;;0.73;0.60;;;;;;;;;;5003610;28;20037;-85
2021/09/29 02:57:59;;;;;;;1.42;1.13;;;;;;;;;;4992838;28;20065;-86
2021/09/29 03:00:25;;;;;;;2.22;1.20;;;;;;;;;;4977010;28;20062;-84
2021/09/29 03:02:51;;;;;;;1.05;0.88;;;;;;;;;;4980474;28;20018;-86
2021/09/29 03:05:17;;;;;;;2.00;0.75;;;;;;;;;;5004660;28;20037;-85
2021/09/29 03:07:43;;;;;;;2.90;0.93;;;;;;;;;;4983812;28;20038;-86
2021/09/29 03:10:09;;;;;;;1.83;0.80;;;;;;;;;;4993541;28;20038;-85
2021/09/29 03:12:35;;;;;;;0.80;0.80;;;;;;;;;;4992633;28;20069;-87
2021/09/29 03:15:01;;;;;;;0.93;0.80;;;;;;;;;;4991990;28;20061;-85
2021/09/29 03:17:27;;;;;;;1.20;0.88;;;;;;;;;;4990280;28;20026;-86
2021/09/29 03:19:53;;;;;;;1.63;0.80;;;;;;;;;;4992270;28;20038;-85
2021/09/29 03:22:19;;;;;;;1.02;0.90;;;;;;;;;;4991459;28;20022;-85
2021/09/29 03:24:45;;;;;;;0.70;0.70;;;;;;;;;;5007124;28;20393;-85
2021/09/29 03:27:11;;;;;;;2.90;1.20;;;;;;;;;;4988427;28;20030;-87
2021/09/29 03:29:37;;;;;;;1.75;1.05;;;;;;;;;;4990834;28;20141;-86
2021/09/29 03:32:03;;;;;;;2.53;1.38;;;;;;;;;;4992531;28;20035;-85
2021/09/29 03:34:29;;;;;;;3.33;0.90;;;;;;;;;;4990395;28;20049;-85
2021/09/29 03:36:55;;;;;;;1.67;1.02;;;;;;;;;;4991147;28;20010;-85
2021/09/29 03:39:21;;;;;;;1.35;0.77;;;;;;;;;;4988407;28;20026;-85
2021/09/29 03:41:48;;;;;;;1.50;0.90;;;;;;;;;;4980667;28;20027;-86
2021/09/29 03:44:14;;;;;;;5.05;1.33;;;;;;;;;;4979096;28;20398;-86
2021/09/29 03:46:39;;;;;;;2.22;1.58;;;;;;;;;;4983765;28;20031;-85
2021/09/29 03:49:05;;;;;;;1.75;1.65;;;;;;;;;;5003827;28;20046;-86
2021/09/29 03:51:32;;;;;;;1.80;0.85;;;;;;;;;;5004856;28;20134;-85
2021/09/29 03:53:59;;;;;;;4.25;1.23;;;;;;;;;;4987956;28;20041;-86
2021/09/29 03:56:25;;;;;;;1.33;1.15;;;;;;;;;;5006308;28;20498;-84
2021/09/29 03:58:51;;;;;;;0.65;0.65;;;;;;;;;;5006550;28;20070;-86
2021/09/29 04:01:19;;;;;;;1.17;0.88;;;;;;;;;;4991475;28;20101;-86
2021/09/29 04:03:45;;;;;;;1.23;0.82;;;;;;;;;;5005952;28;20026;-85
2021/09/29 04:06:11;;;;;;;1.60;1.50;;;;;;;;;;5003207;28;20129;-85
2021/09/29 04:08:37;;;;;;;0.98;0.57;;;;;;;;;;4987046;28;20203;-85
2021/09/29 04:11:03;;;;;;;1.77;0.88;;;;;;;;;;5000297;28;20452;-85
2021/09/29 04:13:31;;;;;;;1.50;0.98;;;;;;;;;;4980692;28;20054;-86
2021/09/29 04:15:57;;;;;;;1.58;1.20;;;;;;;;;;4977607;28;20037;-85
2021/09/29 04:18:23;;;;;;;0.75;0.60;;;;;;;;;;5003309;28;20026;-85
2021/09/29 04:20:49;;;;;;;0.30;0.30;;;;;;;;;;4991798;28;20031;-85
2021/09/29 04:23:15;;;;;;;0.70;0.70;;;;;;;;;;4979943;28;20114;-86
2021/09/29 04:25:41;;;;;;;0.70;0.70;;;15.10;67.60;;;;;;4980816;28;20645;-86
2021/09/29 04:28:07;;;;;;;7.10;0.90;;;;;;;;;;4977126;28;20503;-86
2021/09/29 04:30:33;;;;;;;30.48;1.88;;;;;;;;;;4990963;28;20435;-85
2021/09/29 04:33:00;;;;;;;0.93;0.60;;;;;;;;;;4984615;28;20022;-86
2021/09/29 04:35:26;;;;;;;1.92;0.80;;;;;;;;;;4991038;28;20053;-86
2021/09/29 04:37:52;;;;;;;1.10;0.70;;;;;;;;;;5006814;28;20037;-86
2021/09/29 04:40:18;;;;;;;8.90;1.15;;;;;;;;;;4990486;28;20510;-85
2021/09/29 04:42:44;;;;;;;2.05;1.23;;;;;;;;;;4990997;28;20037;-85
2021/09/29 04:45:10;;;;;;;1.30;0.85;;;;;;;;;;4976322;28;20027;-86
2021/09/29 04:47:37;;;;;;;1.20;0.90;;;;;;;;;;5005953;28;20053;-86
2021/09/29 04:50:03;;;;;;;3.50;1.05;;;15.00;65.90;;;;;;5002978;28;20026;-86
2021/09/29 04:52:29;;;;;;;2.70;0.90;;;;;;;;;;5000671;28;20121;-85
2021/09/29 04:54:55;;;;;;;1.75;1.17;;;;;;;;;;4976025;28;20200;-86
2021/09/29 04:57:21;;;;;;;1.30;1.00;;;;;;;;;;4986901;28;20122;-85
2021/09/29 04:59:47;;;;;;;1.38;1.27;;;;;;;;;;4988536;28;20118;-86
2021/09/29 05:02:14;;;;;;;0.95;0.85;;;;;;;;;;4983878;28;20054;-84
2021/09/29 05:04:40;;;;;;;1.35;1.00;;;;;;;;;;4988643;28;20117;-86
2021/09/29 05:07:06;;;;;;;2.00;1.10;;;;;;;;;;5005585;28;20603;-85
2021/09/29 05:09:33;;;;;;;1.98;1.00;;;;;;;;;;4984979;28;20030;-85
2021/09/29 05:12:00;;;;;;;1.10;0.90;;;;;;;;;;4988427;28;20023;-86
2021/09/29 05:14:26;;;;;;;0.95;0.75;;;;;;;;;;4986228;28;20034;-85
2021/09/29 05:16:52;;;;;;;0.68;0.63;;;;;;;;;;4985260;28;20113;-86
2021/09/29 05:19:18;;;;;;;1.02;0.88;;;;;;;;;;4984217;28;20168;-85
2021/09/29 05:21:44;;;;;;;3.70;1.17;;;;;;;;;;4977771;28;20034;-85
2021/09/29 05:24:09;;;;;;;2.58;2.38;;;;;;;;;;4987814;28;20022;-85
2021/09/29 05:26:35;;;;;;;3.30;1.05;;;;;;;;;;4999224;28;20046;-85
2021/09/29 05:29:02;;;;;;;1.67;0.77;;;;;;;;;;4982530;28;20176;-86
2021/09/29 05:31:28;;;;;;;5.57;1.37;;;;;;;;;;4989163;28;20038;-85
2021/09/29 05:33:54;;;;;;;9.27;1.20;;;;;;;;;;5002763;28;20280;-86
2021/09/29 05:36:20;;;;;;;1.10;0.90;;;;;;;;;;4989950;28;20022;-86
2021/09/29 05:38:46;;;;;;;1.70;1.35;;;;;;;;;;4999557;28;20018;-84
2021/09/29 05:41:12;;;;;;;0.80;0.80;;;;;;;;;;5001952;28;20034;-86
2021/09/29 05:43:39;;;;;;;8.43;1.10;;;;;;;;;;5008924;28;20855;-86
2021/09/29 05:46:05;;;;;;;1.98;1.05;;;;;;;;;;4986043;28;20510;-86
2021/09/29 05:48:31;;;;;;;1.10;0.95;;;;;;;;;;4993526;28;20125;-85
2021/09/29 05:50:57;;;;;;;3.25;1.20;;;;;;;;;;5003086;28;20114;-86
2021/09/29 05:53:23;;;;;;;1.20;0.82;;;;;;;;;;5001284;28;20117;-84
2021/09/29 05:55:49;;;;;;;1.48;0.85;;;;;;;;;;5005899;28;20072;-86
2021/09/29 05:58:15;;;;;;;2.92;1.20;;;;;;;;;;4991947;28;20492;-86
2021/09/29 06:00:41;;;;;;;1.13;0.82;;;;;;;;;;4992805;28;20030;-85
2021/09/29 06:03:07;;;;;;;1.35;1.05;;;;;;;;;;4992575;28;20065;-84
2021/09/29 06:05:33;;;;;;;3.08;1.30;;;;;;;;;;4992416;28;20062;-85
2021/09/29 06:07:59;;;;;;;2.38;1.05;;;;;;;;;;4990094;28;20061;-85
2021/09/29 06:10:25;;;;;;;3.63;1.23;;;;;;;;;;4987612;28;20034;-86
2021/09/29 06:12:51;;;;;;;6.15;1.70;;;;;;;;;;4992268;28;20049;-85
2021/09/29 06:15:22;;;;;;;17.77;8.40;;;;;;;;;;4975990;28;20488;-85
2021/09/29 06:17:56;;;;;;;15.15;7.93;;;;;;;;;;4996149;28;20027;-85
2021/09/29 06:20:22;;;;;;;18.90;8.25;;;;;;;;;;4981334;28;20038;-85
2021/09/29 06:22:49;;;;;;;11.73;5.18;;;;;;;;;;4984573;28;20101;-86
2021/09/29 06:25:16;;;;;;;3.25;1.85;;;;;;;;;;4991514;28;20511;-85
2021/09/29 06:27:42;;;;;;;;;;;14.90;64.10;;;;;;4992451;28;20137;-87
2021/09/29 06:30:08;;;;;;;1.58;1.20;;;;;;;;;;4977179;28;20004;-85
2021/09/29 06:32:34;;;;;;;14.40;2.10;;;;;;;;;;4990986;28;20030;-85
2021/09/29 06:35:00;;;;;;;2.47;1.20;;;;;;;;;;4991660;28;20073;-85
2021/09/29 06:37:26;;;;;;;4.03;1.25;;;;;;;;;;4989813;28;20077;-86
2021/09/29 06:39:52;;;;;;;1.15;0.90;;;;;;;;;;4976753;28;20019;-87
2021/09/29 06:42:18;;;;;;;2.17;0.98;;;;;;;;;;4989238;28;20052;-86
2021/09/29 06:44:45;;;;;;;3.47;1.80;;;;;;;;;;4979343;28;20038;-84
2021/09/29 06:47:11;;;;;;;5.80;1.00;;;;;;;;;;4985744;28;20034;-84
2021/09/29 06:49:37;;;;;;;1.00;0.75;;;;;;;;;;5003402;28;20033;-85
2021/09/29 06:52:03;;;;;;;3.70;1.05;;;;;;;;;;4978068;28;20112;-83
2021/09/29 06:54:29;;;;;;;2.53;1.05;;;;;;;;;;4974880;28;20508;-85
2021/09/29 06:56:55;;;;;;;1.42;0.80;;;;;;;;;;4974653;28;20019;-86
2021/09/29 06:59:21;;;;;;;2.00;0.70;;;;;;;;;;4988485;28;20054;-87
2021/09/29 07:01:47;;;;;;;2.40;1.17;;;;;;;;;;4984879;28;20049;-87
2021/09/29 07:04:14;;;;;;;1.67;1.00;;;;;;;;;;4990752;28;20507;-86
2021/09/29 07:06:39;;;;;;;4.68;0.93;;;;;;;;;;4991594;28;20030;-87
2021/09/29 07:09:05;;;;;;;6.40;1.23;;;;;;;;;;5007741;28;20042;-87
2021/09/29 07:11:31;;;;;;;3.20;1.33;;;;;;;;;;5006324;28;20752;-85
2021/09/29 07:13:57;;;;;;;4.30;1.73;;;;;;;;;;5006383;28;20053;-87
2021/09/29 07:16:25;;;;;;;1.50;0.60;;;;;;;;;;4990861;28;20026;-86
2021/09/29 07:18:53;;;;;;;1.42;0.95;;;;;;;;;;4991146;28;20042;-86
2021/09/29 07:21:19;;;;;;;4.57;0.95;;;;;;;;;;4991157;28;20069;-86
2021/09/29 07:23:45;;;;;;;3.63;1.10;;;;;;;;;;4994022;28;20030;-86
2021/09/29 07:26:11;;;;;;;3.22;1.33;;;;;;;;;;5002187;28;20042;-86
2021/09/29 07:28:37;;;;;;;2.67;1.42;;;;;;;;;;5006836;28;20052;-87
2021/09/29 07:31:03;;;;;;;1.23;0.80;;;;;;;;;;4984601;28;20027;-87
2021/09/29 07:33:33;;;;;;;1.50;0.60;;;;;;;;;;4978946;28;20054;-87
2021/09/29 07:35:59;;;;;;;2.95;0.65;;;;;;;;;;4990578;28;20100;-87
2021/09/29 07:38:27;;;;;;;6.13;0.52;;;;;;;;;;4991263;28;20403;-87
2021/09/29 07:40:53;;;;;;;0.65;0.35;;;;;;;;;;4985861;28;20403;-87
2021/09/29 07:43:19;;;;;;;1.92;1.13;;;;;;;;;;4991385;28;20050;-88
2021/09/29 07:45:45;;;;;;;4.75;0.70;;;;;;;;;;4987227;28;20034;-89
2021/09/29 07:48:11;;;;;;;2.17;1.27;;;;;;;;;;4991961;28;20065;-88
2021/09/29 07:50:37;;;;;;;3.17;0.80;;;;;;;;;;5006641;28;20396;-87
2021/09/29 07:53:03;;;;;;;1.13;0.50;;;;;;;;;;4991040;28;20032;-87
2021/09/29 07:55:30;;;;;;;1.73;0.80;;;;;;;;;;4989644;28;20041;-88
2021/09/29 07:57:56;;;;;;;6.28;1.80;;;;;;;;;;4985185;28;20113;-88
2021/09/29 08:00:22;;;;;;;3.42;0.88;;;;;;;;;;4990936;28;20050;-86
2021/09/29 08:02:48;;;;;;;1.95;0.60;;;;;;;;;;4988629;28;20030;-88
2021/09/29 08:05:15;;;;;;;1.53;0.43;;;28.00;35.80;;;;;;4984125;28;20026;-87
2021/09/29 08:07:41;;;;;;;;;;;28.20;36.60;;;;;;4982187;28;20039;-88
2021/09/29 08:10:08;;;;;;;0.87;0.47;;;27.60;36.60;;;;;;4978358;28;19917;-87
2021/09/29 08:12:34;;;;;;;2.92;0.75;;;;;;;;;;4990301;28;20022;-88
2021/09/29 08:15:00;;;;;;;2.97;1.15;;;;;;;;;;4976486;28;20382;-86
2021/09/29 08:17:26;;;;;;;1.55;1.23;;;;;;;;;;4979395;28;20058;-87
2021/09/29 08:19:53;;;;;;;1.90;0.93;;;;;;;;;;4980065;28;20035;-87
2021/09/29 08:22:20;;;;;;;3.15;0.60;;;;;;;;;;4994884;28;20403;-88
2021/09/29 08:28:29;;;;;;;3.45;1.63;;;;;;;;;;4987517;28;20055;-86
2021/09/29 08:33:12;;;;;;;2.78;0.50;;;;;;;;;;4992127;28;20030;-92
2021/09/29 08:36:05;;;;;;;0.65;0.45;;;;;;;;;;4982131;28;20085;-92
2021/09/29 08:38:51;;;;;;;0.55;0.40;;;;;;;;;;4990543;28;20034;-94
2021/09/29 08:43:54;;;;;;;0.70;0.30;;;23.00;46.10;;;;;;4985754;28;20116;-86
2021/09/29 08:46:25;;;;;;;2.10;0.40;;;;;;;;;;4976805;28;20097;-86
2021/09/29 09:18:17;;;;;;;0.70;0.47;;;;;;;;;;4972201;28;20035;-89
2021/09/29 09:20:52;;;;;;;2.38;0.55;;;;;;;;;;4989981;28;20130;-88
2021/09/29 09:23:18;;;;;;;1.60;0.95;;;;;;;;;;4991137;28;20042;-88
2021/09/29 09:25:45;;;;;;;3.30;0.70;;;;;;;;;;5006244;28;20046;-89
2021/09/29 09:28:27;;;;;;;3.15;0.38;;;;;;;;;;4990937;28;20042;-88
2021/09/29 09:30:57;;;;;;;0.35;0.22;;;22.20;44.10;;;;;;4988433;28;20038;-88
2021/09/29 09:33:24;;;;;;;7.97;0.50;;;;;;;;;;4999503;28;20037;-88
2021/09/29 09:35:50;;;;;;;1.33;0.43;;;;;;;;;;4991053;28;20741;-87
2021/09/29 09:38:23;;;;;;;1.77;0.38;;;;;;;;;;4990933;28;20092;-88
2021/09/29 09:41:01;;;;;;;0.90;0.47;;;;;;;;;;4989860;28;20087;-87
2021/09/29 09:43:29;;;;;;;1.83;0.60;;;21.40;46.20;;;;;;4990807;28;20507;-88
2021/09/29 09:45:55;;;;;;;0.50;0.30;;;;;;;;;;4989713;28;21508;-89
2021/09/29 09:48:23;;;;;;;4.00;2.93;;;;;;;;;;5003069;28;20042;-89
2021/09/29 09:50:49;;;;;;;;;;;;;;;;;;4990936;28;20563;-89
2021/09/29 09:53:16;;;;;;;8.23;1.70;;;;;;;;;;4983521;28;19910;-88
2021/09/29 09:55:43;;;;;;;2.37;0.80;;;;;;;;;;4988696;28;20496;-88
2021/09/29 09:58:09;;;;;;;7.22;0.50;;;;;;;;;;4990808;28;21109;-87
2021/09/29 10:00:36;;;;;;;0.63;0.45;;;;;;;;;;4979796;28;20041;-87
2021/09/29 10:03:02;;;;;;;1.05;0.40;;;;;;;;;;4989191;28;20508;-88
2021/09/29 10:05:30;;;;;;;0.47;0.25;;;;;;;;;;5000764;28;20034;-89
2021/09/29 10:07:57;;;;;;;1.83;0.47;;;;;;;;;;4988774;28;20057;-88
2021/09/29 10:13:30;;;;;;;4.75;1.50;;;23.30;40.70;;;;;;4989355;28;20026;-88
2021/09/29 10:27:11;;;;;;;6.70;0.43;;;;;;;;;;4952262;29;20062;-88
2021/09/29 10:29:43;;;;;;;0.65;0.20;;;;;;;;;;4951483;29;20476;-87
2021/09/29 10:32:15;;;;;;;0.40;0.40;;;24.20;39.50;;;;;;4951991;29;20578;-88
2021/09/29 10:34:54;;;;;;;0.60;0.60;;;;;;;;;;4948507;29;20039;-89
2021/09/29 10:51:16;;;;;;;0.95;0.30;;;;;;;;;;4952298;29;20063;-89
2021/09/29 11:29:54;;;;;;;1.02;0.63;;;;;;;;;;4934305;29;20098;-87
2021/09/29 11:32:46;;;;;;;3.03;0.30;;;;;;;;;;4934540;29;20035;-88
2021/09/29 12:11:13;;;;;;;0.13;0.13;;;23.90;41.50;;;;;;4902190;29;20095;-89
2021/09/29 12:16:26;;;;;;;0.43;0.22;;;;;;;;;;4897586;29;20096;-86
2021/09/29 12:19:07;;;;;;;0.47;0.10;;;23.70;42.20;;;;;;4897155;29;20449;-87
2021/09/29 12:21:50;;;;;;;0.38;0.20;;;23.60;42.60;;;;;;4911978;29;20079;-87
2021/09/29 12:24:27;;;;;;;0.20;0.10;;;;;;;;;;4932058;29;20059;-87
2021/09/29 12:26:55;;;;;;;0.10;0.10;;;;;;;;;;4947994;29;20047;-88
2021/09/29 12:29:32;;;;;;;0.28;0.20;;;;;;;;;;4948883;29;20065;-88
2021/09/29 12:32:12;;;;;;;0.68;0.50;;;;;;;;;;4950478;29;20062;-86
2021/09/29 12:35:03;;;;;;;3.10;0.35;;;;;;;;;;4982585;28;20041;-85
2021/09/29 12:37:29;;;;;;;4.30;0.40;;;;;;;;;;4995045;28;20081;-87
2021/09/29 12:39:56;;;;;;;3.42;0.38;;;;;;;;;;4991117;28;20042;-86
2021/09/29 12:42:32;;;;;;;0.20;0.20;;;;;;;;;;4975509;28;20058;-87
2021/09/29 12:44:58;;;;;;;0.30;0.20;;;;;;;;;;4991723;28;20034;-86
2021/09/29 12:50:00;;;;;;;0.45;0.13;;;;;;;;;;4990308;28;20123;-87
2021/09/29 12:52:38;;;;;;;2.13;0.17;;;;;;;;;;5006428;28;20076;-86
2021/09/29 12:55:05;;;;;;;2.97;0.20;;;22.60;47.60;;;;;;4990931;28;20041;-87
2021/09/29 12:57:31;;;;;;;3.00;0.30;;;;;;;;;;5005200;28;20025;-87
2021/09/29 12:59:58;;;;;;;1.17;0.20;;;;;;;;;;4990908;28;20030;-87
2021/09/29 13:02:24;;;;;;;0.80;0.20;;;;;;;;;;4977877;28;20614;-87
2021/09/29 13:04:51;;;;;;;0.20;0.13;;;;;;;;;;4987467;28;20038;-88
2021/09/29 13:07:18;;;;;;;0.25;0.17;;;;;;;;;;4980045;28;20058;-86
2021/09/29 13:09:44;;;;;;;0.38;0.10;;;;;;;;;;4975275;28;20070;-87
2021/09/29 13:12:10;;;;;;;2.75;0.20;;;;;;;;;;4991791;28;20484;-88
2021/09/29 13:14:36;;;;;;;0.10;0.10;;;;;;;;;;4991226;28;20035;-87
2021/09/29 13:17:02;;;;;;;0.50;0.30;;;;;;;;;;4990893;28;20030;-87
2021/09/29 13:19:33;;;;;;;0.50;0.20;;;;;;;;;;4990721;28;20034;-88
2021/09/29 13:22:03;;;;;;;2.72;0.40;;;;;;;;;;4991580;28;20042;-88
2021/09/29 13:24:55;;;;;;;0.52;0.40;;;;;;;;;;4990782;28;20424;-87
2021/09/29 13:38:17;;;;;;;0.77;0.30;;;;;;;;;;4988218;28;20027;-88
2021/09/29 13:40:44;;;;;;;0.85;0.25;;;;;;;;;;4998711;28;20034;-88
2021/09/29 13:43:10;;;;;;;3.00;0.47;;;;;;;;;;4981453;28;20030;-87
2021/09/29 13:45:37;;;;;;;0.57;0.20;;;;;;;;;;4989448;28;20046;-87
2021/09/29 13:48:03;;;;;;;0.15;0.15;;;;;;;;;;4984934;28;20085;-88
2021/09/29 13:50:30;;;;;;;1.00;0.25;;;;;;;;;;4987093;28;20432;-86
2021/09/29 13:52:57;;;;;;;0.45;0.15;;;;;;;;;;5007080;28;20029;-87
2021/09/29 13:55:25;;;;;;;0.20;0.20;;;;;;;;;;4991939;28;20026;-86
2021/09/29 14:28:35;;;;;;;0.20;0.20;;;;;;;;;;4839314;29;20086;-85
2021/09/29 14:31:04;;;;;;;0.35;0.30;;;;;;;;;;4853545;29;20507;-87
2021/09/29 14:33:38;;;;;;;0.60;0.30;;;;;;;;;;4847020;29;20129;-89
2021/09/29 14:36:04;;;;;;;0.10;0.10;;;;;;;;;;4857402;29;20439;-87
2021/09/29 14:38:30;;;;;;;0.60;0.20;;;;;;;;;;4850187;29;20061;-87
2021/09/29 14:40:56;;;;;;;3.40;0.40;;;;;;;;;;4860341;29;20037;-87
2021/09/29 14:43:22;;;;;;;0.85;0.30;;;;;;;;;;4899055;29;20036;-88
2021/09/29 14:45:48;;;;;;;0.73;0.45;;;;;;;;;;4910379;29;20043;-86
2021/09/29 14:48:14;;;;;;;1.10;0.50;;;;;;;;;;4917788;29;20087;-86
2021/09/29 14:50:43;;;;;;;0.20;0.20;;;;;;;;;;4931006;29;20121;-86
2021/09/29 14:53:09;;;;;;;0.28;0.25;;;;;;;;;;4932086;29;20090;-86
2021/09/29 14:55:35;;;;;;;1.35;0.32;;;;;;;;;;4931926;29;21051;-87
2021/09/29 14:58:03;;;;;;;1.45;0.47;;;;;;;;;;4982579;28;20062;-87
2021/09/29 15:00:30;;;;;;;0.22;0.22;;;;;;;;;;5004590;28;20038;-88
2021/09/29 15:02:57;;;;;;;0.65;0.30;;;;;;;;;;4990584;28;20053;-87
2021/09/29 15:05:23;;;;;;;3.72;0.45;;;;;;;;;;4991661;28;20074;-87
2021/09/29 15:07:49;;;;;;;0.22;0.20;;;;;;;;;;4983546;28;20503;-86
2021/09/29 15:10:15;;;;;;;2.15;1.00;;;;;;;;;;4993675;28;20022;-85
2021/09/29 15:12:41;;;;;;;0.68;0.50;;;;;;;;;;4990079;28;21173;-88
2021/09/29 15:17:56;;;;;;;0.10;0.10;;;;;;;;;;4991824;28;20037;-86
2021/09/29 15:20:38;;;;;;;0.38;0.22;;;;;;;;;;5007629;28;20030;-87
2021/09/29 15:26:07;;;;;;;0.70;0.40;;;;;;;;;;4983979;28;20112;-87
2021/09/29 15:28:51;;;;;;;0.10;0.10;;;;;;;;;;4991626;28;20103;-88
2021/09/29 15:31:29;;;;;;;0.20;0.20;;;;;;;;;;4991540;28;20034;-87
2021/09/29 15:47:51;;;;;;;0.50;0.30;;;;;;;;;;4990971;28;20092;-88
2021/09/29 15:50:29;;;;;;;1.35;0.40;;;;;;;;;;4992265;28;20045;-87
2021/09/29 16:11:41;;;;;;;0.60;0.40;;;;;;;;;;4950329;29;20031;-87
2021/09/29 16:16:43;;;;;;;0.70;0.40;;;;;;;;;;4947780;29;20090;-85
2021/09/29 16:21:46;;;;;;;3.20;0.68;;;;;;;;;;4942880;29;20111;-88
2021/09/29 16:30:05;;;;;;;4.00;0.63;;;;;;;;;;4891203;29;20044;-86
2021/09/29 16:35:09;;;;;;;3.00;1.45;;;;;;;;;;4927634;29;20035;-87
2021/09/29 16:37:35;;;;;;;2.47;1.67;;;;;;;;;;4928617;29;20118;-86
2021/09/29 16:40:02;;;;;;;2.33;0.82;;;;;;;;;;4928295;29;20460;-87
2021/09/29 16:42:28;;;;;;;0.30;0.30;;;;;;;;;;4929434;29;20043;-87
2021/09/29 16:44:56;;;;;;;3.30;1.20;;;;;;;;;;4930025;29;20035;-86
2021/09/29 16:47:23;;;;;;;2.40;0.45;;;;;;;;;;4927432;29;20095;-86
2021/09/29 16:49:49;;;;;;;2.28;0.73;;;;;;;;;;4923156;29;20043;-86
2021/09/29 16:52:27;;;;;;;3.33;0.47;;;;;;;;;;4926916;29;20900;-92
2021/09/29 16:54:54;;;;;;;0.50;0.38;;;;;;;;;;4915309;29;20052;-85
2021/09/29 16:57:34;;;;;;;0.32;0.22;;;;;;;;;;4933012;29;20060;-88
2021/09/29 17:02:29;;;;;;;2.10;0.63;;;;;;;;;;4931051;29;20036;-88
2021/09/29 17:04:55;;;;;;;0.30;0.30;;;;;;;;;;4931281;29;20070;-86
2021/09/29 17:07:21;;;;;;;0.45;0.40;;;;;;;;;;4974408;28;20499;-87
2021/09/29 17:09:47;;;;;;;0.38;0.38;;;;;;;;;;5011387;28;20117;-87
2021/09/29 17:12:14;;;;;;;0.63;0.40;;;;;;;;;;4995504;28;20116;-89
2021/09/29 17:14:41;;;;;;;0.50;0.45;;;;;;;;;;4990595;28;20034;-87
2021/09/29 17:17:07;;;;;;;0.45;0.32;;;;;;;;;;5006000;28;20030;-87
2021/09/29 17:19:32;;;;;;;1.65;1.35;;;;;;;;;;4987180;28;20015;-87
2021/09/29 17:22:00;;;;;;;0.38;0.38;;;;;;;;;;4987949;28;20065;-87
2021/09/29 17:24:27;;;;;;;0.30;0.30;;;;;;;;;;4986098;28;20015;-87
2021/09/29 17:26:53;;;;;;;0.25;0.25;;;;;;;;;;4991880;28;20104;-87
2021/09/29 17:29:20;;;;;;;1.38;0.57;;;;;;;;;;4986834;28;20046;-88
2021/09/29 17:31:52;;;;;;;0.65;0.50;;;;;;;;;;4989597;28;20066;-87
2021/09/29 17:53:04;;;;;;;0.30;0.30;;;;;;;;;;4990701;28;20117;-87
2021/09/29 17:55:33;;;;;;;0.73;0.57;;;;;;;;;;4992275;28;20014;-88
2021/09/29 17:57:59;;;;;;;0.45;0.45;;;18.00;64.40;;;;;;4992277;28;20041;-87
2021/09/29 18:00:27;;;;;;;1.17;0.50;;;;;;;;;;4991340;28;20022;-86
2021/09/29 18:03:06;;;;;;;0.52;0.40;;;;;;;;;;4994783;28;20671;-88
2021/09/29 18:07:58;;;;;;;3.03;0.45;;;;;;;;;;4994131;28;20054;-85
2021/09/29 18:10:26;;;;;;;0.65;0.38;;;;;;;;;;4994413;28;20034;-87
2021/09/29 18:12:51;;;;;;;;;;;17.90;63.70;;;;;;4979534;28;20037;-86
2021/09/29 18:15:18;;;;;;;0.60;0.50;;;;;;;;;;5005415;28;20355;-87
2021/09/29 18:17:44;;;;;;;2.00;1.13;;;;;;;;;;4982571;28;20130;-86
2021/09/29 18:20:11;;;;;;;2.15;1.02;;;;;;;;;;5003704;28;20027;-87
2021/09/29 18:22:38;;;;;;;6.78;0.68;;;17.50;63.30;;;;;;4994051;28;20037;-88
2021/09/29 18:25:05;;;;;;;1.37;0.70;;;;;;;;;;4993365;28;20137;-87
2021/09/29 18:27:31;;;;;;;2.28;0.95;;;;;;;;;;4993675;28;20278;-87
2021/09/29 18:29:59;;;;;;;1.48;1.02;;;;;;;;;;4994485;28;20042;-87
2021/09/29 18:32:26;;;;;;;1.60;0.80;;;;;;;;;;5009142;28;20080;-89
2021/09/29 18:34:52;;;;;;;4.03;0.95;;;;;;;;;;4986451;28;20495;-88
2021/09/29 18:37:20;;;;;;;0.77;0.52;;;;;;;;;;4982172;28;20097;-87
2021/09/29 18:39:48;;;;;;;4.57;1.15;;;;;;;;;;5009387;28;20033;-87
2021/09/29 18:42:17;;;;;;;4.40;1.60;;;;;;;;;;4995125;28;20514;-87
2021/09/29 18:44:43;;;;;;;3.60;0.80;;;;;;;;;;4994498;28;20034;-89
2021/09/29 18:47:10;;;;;;;0.50;0.50;;;;;;;;;;4980473;28;20026;-88
2021/09/29 18:49:38;;;;;;;1.02;0.73;;;;;;;;;;4993053;28;20041;-87
2021/09/29 18:52:04;;;;;;;1.45;0.93;;;;;;;;;;4992203;28;20027;-88
2021/09/29 18:54:34;;;;;;;3.17;1.27;;;;;;;;;;4993883;28;20026;-87
2021/09/29 19:08:11;;;;;;;0.70;0.60;;;;;;;;;;4972211;28;20039;-87